sensor_id;sensor_type;location;lat;lon;timestamp;pressure;altitude;pressure_sealevel;temperature;humidity
64698;BME280;51124;53.394;-6.294;2024-02-14T00:01:07;99655.38;;;20.97;10.01
64698;BME280;51124;53.394;-6.294;2024-02-14T00:03:34;99656.02;;;21.37;10.18
64698;BME280;51124;53.394;-6.294;2024-02-14T00:06:03;99654.10;;;20.64;10.40
64698;BME280;51124;53.394;-6.294;2024-02-14T00:08:31;99654.43;;;20.06;10.60
64698;BME280;51124;53.394;-6.294;2024-02-14T00:10:58;99652.52;;;20.27;10.79
64698;BME280;51124;53.394;-6.294;2024-02-14T00:13:26;99650.13;;;20.54;10.75
64698;BME280;51124;53.394;-6.294;2024-02-14T00:15:54;99650.06;;;20.46;10.87
64698;BME280;51124;53.394;-6.294;2024-02-14T00:18:21;99650.66;;;19.86;10.94
64698;BME280;51124;53.394;-6.294;2024-02-14T00:20:48;99653.08;;;20.07;10.82
64698;BME280;51124;53.394;-6.294;2024-02-14T00:23:16;99652.36;;;19.68;10.87
64698;BME280;51124;53.394;-6.294;2024-02-14T00:25:44;99651.76;;;20.65;10.89
64698;BME280;51124;53.394;-6.294;2024-02-14T00:28:12;99647.66;;;20.07;10.96
64698;BME280;51124;53.394;-6.294;2024-02-14T00:30:39;99644.62;;;19.83;10.96
64698;BME280;51124;53.394;-6.294;2024-02-14T00:33:06;99647.84;;;20.03;10.95
64698;BME280;51124;53.394;-6.294;2024-02-14T00:35:34;99649.34;;;20.30;10.89
64698;BME280;51124;53.394;-6.294;2024-02-14T00:38:02;99647.51;;;20.01;11.01
64698;BME280;51124;53.394;-6.294;2024-02-14T00:40:30;99642.70;;;19.64;10.98
64698;BME280;51124;53.394;-6.294;2024-02-14T00:42:57;99642.19;;;19.74;10.99
64698;BME280;51124;53.394;-6.294;2024-02-14T00:45:25;99640.17;;;20.17;11.01
64698;BME280;51124;53.394;-6.294;2024-02-14T00:47:53;99633.89;;;18.83;10.95
64698;BME280;51124;53.394;-6.294;2024-02-14T00:50:20;99639.34;;;18.30;10.75
64698;BME280;51124;53.394;-6.294;2024-02-14T00:52:48;99641.01;;;17.61;10.48
64698;BME280;51124;53.394;-6.294;2024-02-14T00:55:15;99641.60;;;18.12;10.23
64698;BME280;51124;53.394;-6.294;2024-02-14T00:57:43;99645.25;;;18.05;10.02
64698;BME280;51124;53.394;-6.294;2024-02-14T01:00:10;99646.13;;;18.17;9.79
64698;BME280;51124;53.394;-6.294;2024-02-14T01:02:38;99648.35;;;17.73;9.78
64698;BME280;51124;53.394;-6.294;2024-02-14T01:05:06;99644.94;;;17.21;9.75
64698;BME280;51124;53.394;-6.294;2024-02-14T01:07:33;99647.69;;;17.42;9.50
64698;BME280;51124;53.394;-6.294;2024-02-14T01:10:01;99646.42;;;17.54;9.42
64698;BME280;51124;53.394;-6.294;2024-02-14T01:12:28;99647.17;;;17.68;9.25
64698;BME280;51124;53.394;-6.294;2024-02-14T01:14:56;99641.95;;;17.72;9.22
64698;BME280;51124;53.394;-6.294;2024-02-14T01:17:23;99636.88;;;17.49;9.17
64698;BME280;51124;53.394;-6.294;2024-02-14T01:19:51;99634.01;;;17.77;9.11
64698;BME280;51124;53.394;-6.294;2024-02-14T01:22:18;99639.08;;;17.68;9.06
64698;BME280;51124;53.394;-6.294;2024-02-14T01:24:46;99638.12;;;17.26;9.10
64698;BME280;51124;53.394;-6.294;2024-02-14T01:27:13;99642.69;;;17.06;9.08
64698;BME280;51124;53.394;-6.294;2024-02-14T01:29:40;99646.47;;;17.34;8.99
64698;BME280;51124;53.394;-6.294;2024-02-14T01:32:08;99643.69;;;17.25;8.93
64698;BME280;51124;53.394;-6.294;2024-02-14T01:34:35;99645.76;;;17.38;8.85
64698;BME280;51124;53.394;-6.294;2024-02-14T01:37:03;99643.46;;;17.40;8.87
64698;BME280;51124;53.394;-6.294;2024-02-14T01:39:30;99642.11;;;16.97;8.80
64698;BME280;51124;53.394;-6.294;2024-02-14T01:41:57;99642.35;;;17.83;8.87
64698;BME280;51124;53.394;-6.294;2024-02-14T01:44:25;99635.81;;;16.84;8.90
64698;BME280;51124;53.394;-6.294;2024-02-14T01:46:52;99637.95;;;16.81;8.81
64698;BME280;51124;53.394;-6.294;2024-02-14T01:49:19;99630.64;;;17.30;8.72
64698;BME280;51124;53.394;-6.294;2024-02-14T01:51:48;99634.33;;;17.03;8.80
64698;BME280;51124;53.394;-6.294;2024-02-14T01:54:16;99625.97;;;17.13;8.73
64698;BME280;51124;53.394;-6.294;2024-02-14T01:56:44;99632.93;;;17.35;8.71
64698;BME280;51124;53.394;-6.294;2024-02-14T01:59:12;99633.39;;;17.12;8.85
64698;BME280;51124;53.394;-6.294;2024-02-14T02:01:40;99633.78;;;16.57;8.74
64698;BME280;51124;53.394;-6.294;2024-02-14T02:04:08;99630.57;;;16.60;8.68
64698;BME280;51124;53.394;-6.294;2024-02-14T02:06:36;99630.74;;;17.52;8.68
64698;BME280;51124;53.394;-6.294;2024-02-14T02:09:03;99636.99;;;16.85;8.70
64698;BME280;51124;53.394;-6.294;2024-02-14T02:11:31;99638.58;;;16.98;8.75
64698;BME280;51124;53.394;-6.294;2024-02-14T02:13:58;99637.91;;;17.66;8.68
64698;BME280;51124;53.394;-6.294;2024-02-14T02:16:26;99640.42;;;16.76;8.72
64698;BME280;51124;53.394;-6.294;2024-02-14T02:18:53;99636.72;;;16.51;8.69
64698;BME280;51124;53.394;-6.294;2024-02-14T02:21:21;99640.39;;;17.33;8.71
64698;BME280;51124;53.394;-6.294;2024-02-14T02:23:48;99635.30;;;16.53;8.68
64698;BME280;51124;53.394;-6.294;2024-02-14T02:26:16;99630.41;;;17.16;8.67
64698;BME280;51124;53.394;-6.294;2024-02-14T02:28:43;99631.55;;;18.39;8.81
64698;BME280;51124;53.394;-6.294;2024-02-14T02:31:10;99631.76;;;16.67;8.81
64698;BME280;51124;53.394;-6.294;2024-02-14T02:33:38;99636.74;;;16.52;8.76
64698;BME280;51124;53.394;-6.294;2024-02-14T02:36:06;99634.04;;;17.43;8.78
64698;BME280;51124;53.394;-6.294;2024-02-14T02:38:33;99631.21;;;17.36;8.77
64698;BME280;51124;53.394;-6.294;2024-02-14T02:41:01;99632.65;;;18.06;8.82
64698;BME280;51124;53.394;-6.294;2024-02-14T02:43:28;99624.95;;;17.95;8.69
64698;BME280;51124;53.394;-6.294;2024-02-14T02:45:55;99628.91;;;16.86;8.82
64698;BME280;51124;53.394;-6.294;2024-02-14T02:48:23;99630.56;;;16.70;8.69
64698;BME280;51124;53.394;-6.294;2024-02-14T02:50:50;99636.97;;;16.89;8.71
64698;BME280;51124;53.394;-6.294;2024-02-14T02:53:18;99634.87;;;16.54;8.60
64698;BME280;51124;53.394;-6.294;2024-02-14T02:55:46;99630.49;;;16.83;8.56
64698;BME280;51124;53.394;-6.294;2024-02-14T02:58:13;99626.56;;;19.78;8.66
64698;BME280;51124;53.394;-6.294;2024-02-14T03:00:41;99630.84;;;20.05;8.96
64698;BME280;51124;53.394;-6.294;2024-02-14T03:03:09;99628.85;;;18.41;9.43
64698;BME280;51124;53.394;-6.294;2024-02-14T03:05:37;99631.74;;;17.77;9.49
64698;BME280;51124;53.394;-6.294;2024-02-14T03:08:05;99630.76;;;17.94;9.50
64698;BME280;51124;53.394;-6.294;2024-02-14T03:10:32;99625.54;;;20.56;9.56
64698;BME280;51124;53.394;-6.294;2024-02-14T03:13:00;99629.13;;;20.36;9.94
64698;BME280;51124;53.394;-6.294;2024-02-14T03:15:27;99631.70;;;19.54;10.29
64698;BME280;51124;53.394;-6.294;2024-02-14T03:17:55;99628.22;;;19.68;10.34
64698;BME280;51124;53.394;-6.294;2024-02-14T03:20:23;99632.58;;;19.92;10.49
64698;BME280;51124;53.394;-6.294;2024-02-14T03:22:51;99635.35;;;19.09;10.59
64698;BME280;51124;53.394;-6.294;2024-02-14T03:25:19;99632.49;;;18.99;10.65
64698;BME280;51124;53.394;-6.294;2024-02-14T03:27:47;99631.22;;;19.12;10.69
64698;BME280;51124;53.394;-6.294;2024-02-14T03:30:15;99630.02;;;19.14;10.71
64698;BME280;51124;53.394;-6.294;2024-02-14T03:32:43;99628.14;;;19.67;10.61
64698;BME280;51124;53.394;-6.294;2024-02-14T03:35:10;99634.15;;;18.98;10.72
64698;BME280;51124;53.394;-6.294;2024-02-14T03:37:38;99633.20;;;19.16;10.73
64698;BME280;51124;53.394;-6.294;2024-02-14T03:40:07;99636.98;;;19.17;10.81
64698;BME280;51124;53.394;-6.294;2024-02-14T03:42:36;99633.64;;;19.64;10.80
64698;BME280;51124;53.394;-6.294;2024-02-14T03:45:04;99638.04;;;19.72;10.71
64698;BME280;51124;53.394;-6.294;2024-02-14T03:47:32;99635.75;;;19.90;10.83
64698;BME280;51124;53.394;-6.294;2024-02-14T03:49:59;99637.38;;;19.19;10.78
64698;BME280;51124;53.394;-6.294;2024-02-14T03:52:27;99637.95;;;18.86;10.83
64698;BME280;51124;53.394;-6.294;2024-02-14T03:54:55;99634.91;;;19.77;10.78
64698;BME280;51124;53.394;-6.294;2024-02-14T03:57:23;99630.91;;;19.62;10.79
64698;BME280;51124;53.394;-6.294;2024-02-14T03:59:50;99632.83;;;18.22;10.87
64698;BME280;51124;53.394;-6.294;2024-02-14T04:02:18;99625.17;;;17.37;10.61
64698;BME280;51124;53.394;-6.294;2024-02-14T04:04:45;99622.49;;;16.31;10.27
64698;BME280;51124;53.394;-6.294;2024-02-14T04:07:13;99613.85;;;17.27;9.83
64698;BME280;51124;53.394;-6.294;2024-02-14T04:09:40;99616.78;;;17.42;9.69
64698;BME280;51124;53.394;-6.294;2024-02-14T04:12:08;99611.62;;;18.27;9.50
64698;BME280;51124;53.394;-6.294;2024-02-14T04:14:35;99612.40;;;16.99;9.54
64698;BME280;51124;53.394;-6.294;2024-02-14T04:17:04;99614.97;;;17.70;9.31
64698;BME280;51124;53.394;-6.294;2024-02-14T04:19:31;99599.22;;;17.29;9.20
64698;BME280;51124;53.394;-6.294;2024-02-14T04:21:59;99592.40;;;17.49;9.02
64698;BME280;51124;53.394;-6.294;2024-02-14T04:24:26;99581.13;;;17.72;8.99
64698;BME280;51124;53.394;-6.294;2024-02-14T04:26:55;99579.76;;;17.38;8.95
64698;BME280;51124;53.394;-6.294;2024-02-14T04:29:22;99578.60;;;17.54;8.95
64698;BME280;51124;53.394;-6.294;2024-02-14T04:31:49;99575.95;;;16.77;8.93
64698;BME280;51124;53.394;-6.294;2024-02-14T04:34:17;99583.86;;;17.29;8.84
64698;BME280;51124;53.394;-6.294;2024-02-14T04:36:44;99589.67;;;17.14;8.83
64698;BME280;51124;53.394;-6.294;2024-02-14T04:39:12;99587.73;;;17.22;8.74
64698;BME280;51124;53.394;-6.294;2024-02-14T04:41:39;99592.25;;;17.17;8.64
64698;BME280;51124;53.394;-6.294;2024-02-14T04:44:06;99592.43;;;16.89;8.63
64698;BME280;51124;53.394;-6.294;2024-02-14T04:46:34;99601.24;;;16.61;8.65
64698;BME280;51124;53.394;-6.294;2024-02-14T04:49:02;99605.07;;;16.73;8.65
64698;BME280;51124;53.394;-6.294;2024-02-14T04:51:29;99602.24;;;17.44;8.63
64698;BME280;51124;53.394;-6.294;2024-02-14T04:53:57;99606.76;;;16.06;8.59
64698;BME280;51124;53.394;-6.294;2024-02-14T04:56:24;99603.95;;;16.64;8.73
64698;BME280;51124;53.394;-6.294;2024-02-14T04:58:52;99604.90;;;17.11;8.59
64698;BME280;51124;53.394;-6.294;2024-02-14T05:01:19;99597.96;;;17.26;8.64
64698;BME280;51124;53.394;-6.294;2024-02-14T05:03:47;99600.32;;;17.44;8.52
64698;BME280;51124;53.394;-6.294;2024-02-14T05:06:15;99596.59;;;16.83;8.57
64698;BME280;51124;53.394;-6.294;2024-02-14T05:08:42;99600.20;;;17.02;8.54
64698;BME280;51124;53.394;-6.294;2024-02-14T05:11:10;99603.64;;;17.06;8.60
64698;BME280;51124;53.394;-6.294;2024-02-14T05:13:37;99601.30;;;16.65;8.46
64698;BME280;51124;53.394;-6.294;2024-02-14T05:16:05;99601.79;;;17.24;8.42
64698;BME280;51124;53.394;-6.294;2024-02-14T05:18:32;99607.28;;;17.08;8.44
64698;BME280;51124;53.394;-6.294;2024-02-14T05:21:00;99614.44;;;17.49;8.36
64698;BME280;51124;53.394;-6.294;2024-02-14T05:23:27;99609.49;;;17.07;8.52
64698;BME280;51124;53.394;-6.294;2024-02-14T05:25:55;99607.09;;;16.88;8.53
64698;BME280;51124;53.394;-6.294;2024-02-14T05:28:22;99607.50;;;17.60;8.45
64698;BME280;51124;53.394;-6.294;2024-02-14T05:30:50;99603.82;;;17.33;8.39
64698;BME280;51124;53.394;-6.294;2024-02-14T05:33:17;99605.65;;;17.13;8.46
64698;BME280;51124;53.394;-6.294;2024-02-14T05:35:44;99603.83;;;17.45;8.36
64698;BME280;51124;53.394;-6.294;2024-02-14T05:38:12;99608.72;;;18.45;8.48
64698;BME280;51124;53.394;-6.294;2024-02-14T05:40:49;99608.51;;;16.52;8.51
64698;BME280;51124;53.394;-6.294;2024-02-14T05:43:17;99609.29;;;16.69;8.56
64698;BME280;51124;53.394;-6.294;2024-02-14T05:45:44;99604.25;;;17.97;8.44
64698;BME280;51124;53.394;-6.294;2024-02-14T05:48:12;99603.56;;;16.99;8.43
64698;BME280;51124;53.394;-6.294;2024-02-14T05:50:39;99600.64;;;18.09;8.37
64698;BME280;51124;53.394;-6.294;2024-02-14T05:53:07;99607.14;;;16.70;8.56
64698;BME280;51124;53.394;-6.294;2024-02-14T05:55:34;99605.90;;;16.92;8.55
64698;BME280;51124;53.394;-6.294;2024-02-14T05:58:01;99603.94;;;16.76;8.43
64698;BME280;51124;53.394;-6.294;2024-02-14T06:00:29;99604.85;;;17.23;8.41
64698;BME280;51124;53.394;-6.294;2024-02-14T06:02:56;99604.51;;;17.03;8.36
64698;BME280;51124;53.394;-6.294;2024-02-14T06:05:24;99610.15;;;17.85;8.35
64698;BME280;51124;53.394;-6.294;2024-02-14T06:07:51;99610.51;;;18.40;8.41
64698;BME280;51124;53.394;-6.294;2024-02-14T06:10:19;99615.85;;;19.64;8.82
64698;BME280;51124;53.394;-6.294;2024-02-14T06:12:47;99611.68;;;19.16;9.01
64698;BME280;51124;53.394;-6.294;2024-02-14T06:15:14;99612.12;;;19.04;9.21
64698;BME280;51124;53.394;-6.294;2024-02-14T06:17:42;99611.61;;;18.00;9.21
64698;BME280;51124;53.394;-6.294;2024-02-14T06:20:10;99619.92;;;20.44;9.30
64698;BME280;51124;53.394;-6.294;2024-02-14T06:22:37;99623.36;;;19.86;9.74
64698;BME280;51124;53.394;-6.294;2024-02-14T06:25:06;99628.67;;;20.09;9.95
64698;BME280;51124;53.394;-6.294;2024-02-14T06:27:34;99628.53;;;20.25;10.11
64698;BME280;51124;53.394;-6.294;2024-02-14T06:30:02;99624.28;;;20.25;10.18
64698;BME280;51124;53.394;-6.294;2024-02-14T06:32:29;99625.45;;;19.33;10.32
64698;BME280;51124;53.394;-6.294;2024-02-14T06:34:57;99620.95;;;19.31;10.38
64698;BME280;51124;53.394;-6.294;2024-02-14T06:37:25;99623.59;;;19.86;10.39
64698;BME280;51124;53.394;-6.294;2024-02-14T06:39:53;99625.53;;;19.80;10.47
64698;BME280;51124;53.394;-6.294;2024-02-14T06:42:20;99623.18;;;18.55;10.64
64698;BME280;51124;53.394;-6.294;2024-02-14T06:44:48;99624.82;;;19.31;10.54
64698;BME280;51124;53.394;-6.294;2024-02-14T06:47:15;99625.91;;;20.00;10.51
64698;BME280;51124;53.394;-6.294;2024-02-14T06:49:43;99624.27;;;19.58;10.55
64698;BME280;51124;53.394;-6.294;2024-02-14T06:52:12;99626.96;;;19.27;10.52
64698;BME280;51124;53.394;-6.294;2024-02-14T06:54:39;99634.22;;;18.88;10.55
64698;BME280;51124;53.394;-6.294;2024-02-14T06:57:07;99633.19;;;19.15;10.58
64698;BME280;51124;53.394;-6.294;2024-02-14T06:59:35;99638.06;;;19.81;10.58
64698;BME280;51124;53.394;-6.294;2024-02-14T07:02:03;99637.94;;;19.87;10.61
64698;BME280;51124;53.394;-6.294;2024-02-14T07:04:30;99634.31;;;18.59;10.60
64698;BME280;51124;53.394;-6.294;2024-02-14T07:06:58;99630.45;;;19.75;10.54
64698;BME280;51124;53.394;-6.294;2024-02-14T07:09:25;99625.60;;;18.88;10.56
64698;BME280;51124;53.394;-6.294;2024-02-14T07:11:53;99631.50;;;17.73;10.40
64698;BME280;51124;53.394;-6.294;2024-02-14T07:14:21;99629.71;;;16.60;10.15
64698;BME280;51124;53.394;-6.294;2024-02-14T07:16:48;99631.21;;;17.22;9.76
64698;BME280;51124;53.394;-6.294;2024-02-14T07:19:15;99628.98;;;17.19;9.46
64698;BME280;51124;53.394;-6.294;2024-02-14T07:21:43;99628.83;;;18.24;9.39
64698;BME280;51124;53.394;-6.294;2024-02-14T07:24:10;99627.47;;;17.34;9.28
64698;BME280;51124;53.394;-6.294;2024-02-14T07:26:38;99618.97;;;17.01;9.03
64698;BME280;51124;53.394;-6.294;2024-02-14T07:29:05;99618.86;;;16.93;8.79
64698;BME280;51124;53.394;-6.294;2024-02-14T07:31:33;99617.41;;;17.02;8.70
64698;BME280;51124;53.394;-6.294;2024-02-14T07:34:00;99616.54;;;17.68;8.68
64698;BME280;51124;53.394;-6.294;2024-02-14T07:36:28;99617.82;;;17.78;8.53
64698;BME280;51124;53.394;-6.294;2024-02-14T07:38:55;99622.89;;;16.99;8.43
64698;BME280;51124;53.394;-6.294;2024-02-14T07:41:23;99626.79;;;17.56;8.53
64698;BME280;51124;53.394;-6.294;2024-02-14T07:43:50;99631.07;;;17.46;8.60
64698;BME280;51124;53.394;-6.294;2024-02-14T07:46:20;99633.20;;;17.07;8.59
64698;BME280;51124;53.394;-6.294;2024-02-14T07:48:47;99640.68;;;17.68;8.47
64698;BME280;51124;53.394;-6.294;2024-02-14T07:51:15;99642.80;;;16.72;8.37
64698;BME280;51124;53.394;-6.294;2024-02-14T07:53:42;99642.57;;;17.77;8.24
64698;BME280;51124;53.394;-6.294;2024-02-14T07:56:10;99641.41;;;17.48;8.13
64698;BME280;51124;53.394;-6.294;2024-02-14T07:58:37;99640.83;;;18.01;8.08
64698;BME280;51124;53.394;-6.294;2024-02-14T08:01:05;99634.76;;;17.49;8.12
64698;BME280;51124;53.394;-6.294;2024-02-14T08:03:32;99637.27;;;18.24;7.92
64698;BME280;51124;53.394;-6.294;2024-02-14T08:05:59;99641.66;;;17.84;8.10
64698;BME280;51124;53.394;-6.294;2024-02-14T08:08:27;99643.92;;;17.81;8.10
64698;BME280;51124;53.394;-6.294;2024-02-14T08:10:55;99644.98;;;17.41;7.96
64698;BME280;51124;53.394;-6.294;2024-02-14T08:13:22;99654.00;;;17.71;8.01
64698;BME280;51124;53.394;-6.294;2024-02-14T08:15:50;99659.68;;;18.02;8.04
64698;BME280;51124;53.394;-6.294;2024-02-14T08:18:17;99661.62;;;18.02;8.10
64698;BME280;51124;53.394;-6.294;2024-02-14T08:20:44;99668.84;;;17.84;8.10
64698;BME280;51124;53.394;-6.294;2024-02-14T08:23:12;99674.96;;;17.83;7.89
64698;BME280;51124;53.394;-6.294;2024-02-14T08:25:39;99677.70;;;18.75;7.97
64698;BME280;51124;53.394;-6.294;2024-02-14T08:28:09;99682.85;;;18.03;8.15
64698;BME280;51124;53.394;-6.294;2024-02-14T08:30:36;99676.23;;;17.80;8.54
64698;BME280;51124;53.394;-6.294;2024-02-14T08:33:04;99668.19;;;17.41;8.76
64698;BME280;51124;53.394;-6.294;2024-02-14T08:35:31;99667.51;;;18.42;8.75
64698;BME280;51124;53.394;-6.294;2024-02-14T08:37:59;99673.57;;;18.21;8.91
64698;BME280;51124;53.394;-6.294;2024-02-14T08:40:26;99674.69;;;18.92;8.82
64698;BME280;51124;53.394;-6.294;2024-02-14T08:42:53;99675.45;;;18.16;8.81
64698;BME280;51124;53.394;-6.294;2024-02-14T08:45:21;99678.91;;;16.56;9.38
64698;BME280;51124;53.394;-6.294;2024-02-14T08:47:48;99671.48;;;17.59;9.14
64698;BME280;51124;53.394;-6.294;2024-02-14T08:50:16;99664.47;;;17.43;9.09
64698;BME280;51124;53.394;-6.294;2024-02-14T08:52:43;99662.20;;;17.51;8.95
64698;BME280;51124;53.394;-6.294;2024-02-14T08:55:11;99667.64;;;18.37;8.87
64698;BME280;51124;53.394;-6.294;2024-02-14T08:57:38;99675.18;;;17.89;8.94
64698;BME280;51124;53.394;-6.294;2024-02-14T09:00:07;99681.53;;;17.71;8.97
64698;BME280;51124;53.394;-6.294;2024-02-14T09:02:35;99689.37;;;18.03;8.92
64698;BME280;51124;53.394;-6.294;2024-02-14T09:05:02;99692.58;;;18.21;8.90
64698;BME280;51124;53.394;-6.294;2024-02-14T09:07:30;99691.57;;;18.63;8.50
64698;BME280;51124;53.394;-6.294;2024-02-14T09:10:13;99691.69;;;20.65;7.89
64698;BME280;51124;53.394;-6.294;2024-02-14T09:12:31;99691.16;;;19.69;8.29
64698;BME280;51124;53.394;-6.294;2024-02-14T09:15:00;99702.06;;;20.66;8.94
64698;BME280;51124;53.394;-6.294;2024-02-14T09:17:28;99706.48;;;20.36;9.15
64698;BME280;51124;53.394;-6.294;2024-02-14T09:19:55;99704.23;;;19.21;9.41
64698;BME280;51124;53.394;-6.294;2024-02-14T09:22:23;99703.90;;;19.33;9.26
64698;BME280;51124;53.394;-6.294;2024-02-14T09:24:50;99709.94;;;21.05;9.61
64698;BME280;51124;53.394;-6.294;2024-02-14T09:27:18;99711.53;;;20.67;10.15
64698;BME280;51124;53.394;-6.294;2024-02-14T09:29:46;99710.94;;;20.77;10.30
64698;BME280;51124;53.394;-6.294;2024-02-14T09:32:13;99707.23;;;21.23;10.53
64698;BME280;51124;53.394;-6.294;2024-02-14T09:34:41;99711.34;;;20.39;10.68
64698;BME280;51124;53.394;-6.294;2024-02-14T09:37:08;99714.10;;;20.01;10.90
64698;BME280;51124;53.394;-6.294;2024-02-14T09:39:54;99709.33;;;21.54;9.71
64698;BME280;51124;53.394;-6.294;2024-02-14T09:42:15;99712.91;;;22.36;9.86
64698;BME280;51124;53.394;-6.294;2024-02-14T09:44:37;99708.52;;;22.25;9.89
64698;BME280;51124;53.394;-6.294;2024-02-14T09:47:08;99713.80;;;21.10;10.12
64698;BME280;51124;53.394;-6.294;2024-02-14T09:49:37;99712.25;;;22.48;9.80
64698;BME280;51124;53.394;-6.294;2024-02-14T09:52:08;99717.47;;;20.16;10.36
64698;BME280;51124;53.394;-6.294;2024-02-14T09:54:38;99713.59;;;21.13;10.26
64698;BME280;51124;53.394;-6.294;2024-02-14T09:57:07;99717.07;;;21.15;10.28
64698;BME280;51124;53.394;-6.294;2024-02-14T09:59:37;99725.35;;;21.25;10.37
64698;BME280;51124;53.394;-6.294;2024-02-14T10:02:05;99726.08;;;21.36;10.46
64698;BME280;51124;53.394;-6.294;2024-02-14T10:04:33;99728.95;;;20.78;10.77
64698;BME280;51124;53.394;-6.294;2024-02-14T10:07:01;99740.30;;;20.83;10.79
64698;BME280;51124;53.394;-6.294;2024-02-14T10:09:28;99738.37;;;20.79;10.73
64698;BME280;51124;53.394;-6.294;2024-02-14T10:11:56;99739.45;;;21.41;10.62
64698;BME280;51124;53.394;-6.294;2024-02-14T10:14:25;99741.57;;;20.77;10.59
64698;BME280;51124;53.394;-6.294;2024-02-14T10:16:52;99731.39;;;20.09;10.36
64698;BME280;51124;53.394;-6.294;2024-02-14T10:19:20;99725.83;;;19.67;9.91
64698;BME280;51124;53.394;-6.294;2024-02-14T10:22:09;99725.18;;;19.73;9.60
64698;BME280;51124;53.394;-6.294;2024-02-14T10:24:36;99728.28;;;19.68;9.41
64698;BME280;51124;53.394;-6.294;2024-02-14T10:27:07;99725.20;;;20.77;9.17
64698;BME280;51124;53.394;-6.294;2024-02-14T10:29:35;99725.97;;;19.96;9.13
64698;BME280;51124;53.394;-6.294;2024-02-14T10:32:03;99730.75;;;19.86;8.83
64698;BME280;51124;53.394;-6.294;2024-02-14T10:34:31;99736.29;;;19.97;8.78
64698;BME280;51124;53.394;-6.294;2024-02-14T10:37:01;99737.58;;;19.27;8.71
64698;BME280;51124;53.394;-6.294;2024-02-14T10:39:28;99742.90;;;19.58;8.75
64698;BME280;51124;53.394;-6.294;2024-02-14T10:41:56;99740.23;;;19.53;8.45
64698;BME280;51124;53.394;-6.294;2024-02-14T10:44:24;99745.11;;;19.50;8.64
64698;BME280;51124;53.394;-6.294;2024-02-14T10:46:55;99748.28;;;20.05;8.41
64698;BME280;51124;53.394;-6.294;2024-02-14T10:49:23;99741.07;;;20.37;8.32
64698;BME280;51124;53.394;-6.294;2024-02-14T10:51:54;99737.02;;;20.81;8.13
64698;BME280;51124;53.394;-6.294;2024-02-14T10:54:23;99744.34;;;20.53;8.19
64698;BME280;51124;53.394;-6.294;2024-02-14T10:56:52;99736.52;;;21.02;8.05
64698;BME280;51124;53.394;-6.294;2024-02-14T10:59:22;99746.29;;;20.41;8.11
64698;BME280;51124;53.394;-6.294;2024-02-14T11:01:51;99745.31;;;20.44;8.10
64698;BME280;51124;53.394;-6.294;2024-02-14T11:04:19;99745.35;;;20.58;7.99
64698;BME280;51124;53.394;-6.294;2024-02-14T11:06:48;99753.18;;;20.14;8.02
64698;BME280;51124;53.394;-6.294;2024-02-14T11:09:16;99761.31;;;20.28;8.06
64698;BME280;51124;53.394;-6.294;2024-02-14T11:11:44;99767.51;;;20.51;7.98
64698;BME280;51124;53.394;-6.294;2024-02-14T11:14:14;99767.48;;;21.19;7.91
64698;BME280;51124;53.394;-6.294;2024-02-14T11:16:44;99762.74;;;20.21;8.10
64698;BME280;51124;53.394;-6.294;2024-02-14T11:19:13;99767.34;;;19.67;8.24
64698;BME280;51124;53.394;-6.294;2024-02-14T11:21:43;99766.72;;;20.06;8.17
64698;BME280;51124;53.394;-6.294;2024-02-14T11:24:12;99772.04;;;19.87;8.11
64698;BME280;51124;53.394;-6.294;2024-02-14T11:26:45;99775.34;;;19.57;8.05
64698;BME280;51124;53.394;-6.294;2024-02-14T11:29:16;99777.14;;;20.65;7.94
64698;BME280;51124;53.394;-6.294;2024-02-14T11:31:43;99772.57;;;21.39;7.85
64698;BME280;51124;53.394;-6.294;2024-02-14T11:34:13;99776.08;;;20.35;7.89
64698;BME280;51124;53.394;-6.294;2024-02-14T11:36:43;99776.45;;;21.11;7.87
64698;BME280;51124;53.394;-6.294;2024-02-14T11:39:11;99774.02;;;20.78;8.02
64698;BME280;51124;53.394;-6.294;2024-02-14T11:41:38;99772.74;;;20.35;7.91
64698;BME280;51124;53.394;-6.294;2024-02-14T11:44:06;99769.34;;;20.95;7.82
64698;BME280;51124;53.394;-6.294;2024-02-14T11:46:35;99769.10;;;20.61;7.87
64698;BME280;51124;53.394;-6.294;2024-02-14T11:49:04;99771.78;;;21.30;7.85
64698;BME280;51124;53.394;-6.294;2024-02-14T11:51:32;99780.57;;;20.86;8.01
64698;BME280;51124;53.394;-6.294;2024-02-14T11:54:00;99782.18;;;21.51;7.94
64698;BME280;51124;53.394;-6.294;2024-02-14T11:56:28;99785.33;;;21.38;7.89
64698;BME280;51124;53.394;-6.294;2024-02-14T11:58:58;99788.82;;;21.33;7.93
64698;BME280;51124;53.394;-6.294;2024-02-14T12:01:26;99784.68;;;21.79;7.91
64698;BME280;51124;53.394;-6.294;2024-02-14T12:03:55;99791.73;;;21.06;7.99
64698;BME280;51124;53.394;-6.294;2024-02-14T12:06:22;99802.09;;;21.15;8.11
64698;BME280;51124;53.394;-6.294;2024-02-14T12:08:50;99802.00;;;20.41;8.02
64698;BME280;51124;53.394;-6.294;2024-02-14T12:11:19;99794.97;;;20.50;8.04
64698;BME280;51124;53.394;-6.294;2024-02-14T12:13:51;99802.38;;;20.68;7.93
64698;BME280;51124;53.394;-6.294;2024-02-14T12:16:21;99798.48;;;20.87;7.84
64698;BME280;51124;53.394;-6.294;2024-02-14T12:18:49;99802.11;;;21.80;7.80
64698;BME280;51124;53.394;-6.294;2024-02-14T12:21:17;99810.64;;;23.08;8.23
64698;BME280;51124;53.394;-6.294;2024-02-14T12:23:44;99812.96;;;22.99;8.63
64698;BME280;51124;53.394;-6.294;2024-02-14T12:26:17;99814.87;;;21.34;8.78
64698;BME280;51124;53.394;-6.294;2024-02-14T12:28:48;99816.09;;;22.80;8.56
64698;BME280;51124;53.394;-6.294;2024-02-14T12:31:23;99812.58;;;24.40;9.09
64698;BME280;51124;53.394;-6.294;2024-02-14T12:33:41;99814.73;;;24.09;9.48
64698;BME280;51124;53.394;-6.294;2024-02-14T12:37:37;99819.10;;;23.33;9.70
64698;BME280;51124;53.394;-6.294;2024-02-14T12:40:12;99810.71;;;22.63;9.82
64698;BME280;51124;53.394;-6.294;2024-02-14T12:44:01;99808.47;;;23.41;9.81
64698;BME280;51124;53.394;-6.294;2024-02-14T12:46:24;99810.55;;;23.01;9.82
64698;BME280;51124;53.394;-6.294;2024-02-14T12:48:52;99820.54;;;23.64;9.86
64698;BME280;51124;53.394;-6.294;2024-02-14T12:51:21;99821.77;;;23.08;9.92
64698;BME280;51124;53.394;-6.294;2024-02-14T12:53:39;99825.44;;;22.77;9.91
64698;BME280;51124;53.394;-6.294;2024-02-14T12:56:07;99821.26;;;22.93;9.94
64698;BME280;51124;53.394;-6.294;2024-02-14T12:58:35;99823.05;;;23.35;9.91
64698;BME280;51124;53.394;-6.294;2024-02-14T13:01:04;99825.14;;;22.97;9.96
64698;BME280;51124;53.394;-6.294;2024-02-14T13:03:32;99824.10;;;22.89;9.95